Skip Navigation Links Skip Navigation Links

Current Weather

Piedmont Triad International, Greensboro, N.C.

For information only: do not use for flight planning or navigation.
Latest weather
Observation time Thursday, October 18, 2018 12:54 AM EDT
Local time Thursday, October 18, 2018 1:36 AM EDT
Flight conditions Visual Meteorological Conditions
Winds
Wind direction West-Northwest (300°)
Wind speed 6 mph
Visibility 10 mi.
Sky condition
Ceiling 25,000 ft. broken clouds
Cloud layer few clouds 15,000 ft.
Cloud layer broken clouds 25,000 ft.
Temperature 54°F
Dewpoint 42°F
Altimeter 30.26 in.Hg
Derived measurements
Relative humidity 64%
Density altitude 339 ft.
Sea-level pressure 30.25 in.Hg
Climate data
Temperature minimum, last 24 hours 52°F
Temperature maximum, last 24 hours 73°F
Remarks
Automated weather observing station with precipitation discriminator.
METAR KGSO 180454Z 30005KT 10SM FEW150 BKN250 12/06 A3026 RMK AO2 SLP243 T01220056 402280111

Settings

Location code

InnerDrive.Weather 4.0.6770.0 Release CLR 4.0.30319.42000
Copyright ©2018 Inner Drive Technology. All rights reserved. Portions Copyright ©1986-2018 David Braverman.

Find weather

Site navigation


Skip Navigation Links

Place info

Page info

PayPal - The safer, easier way to pay online!

Return home.

Copyright ©2018 Inner Drive Technology. Purveyors of fine, hand-crafted computer software. Page printed 2018-10-18T05:36:05 UTC.